sensor_id;sensor_type;location;lat;lon;timestamp;temperature;humidity
22532;DHT22;11432;46.924;7.114;2023-06-04T00:01:36;17.10;1.00
22532;DHT22;11432;46.924;7.114;2023-06-04T00:04:02;17.00;1.00
22532;DHT22;11432;46.924;7.114;2023-06-04T00:06:27;16.90;1.00
22532;DHT22;11432;46.924;7.114;2023-06-04T00:08:53;16.80;1.00
22532;DHT22;11432;46.924;7.114;2023-06-04T00:11:18;16.80;1.00
22532;DHT22;11432;46.924;7.114;2023-06-04T00:13:45;16.70;16.90
22532;DHT22;11432;46.924;7.114;2023-06-04T00:16:11;16.70;35.70
22532;DHT22;11432;46.924;7.114;2023-06-04T00:18:36;16.70;48.50
22532;DHT22;11432;46.924;7.114;2023-06-04T00:21:02;16.70;69.70
22532;DHT22;11432;46.924;7.114;2023-06-04T00:23:27;16.80;70.80
22532;DHT22;11432;46.924;7.114;2023-06-04T00:25:53;16.80;68.50
22532;DHT22;11432;46.924;7.114;2023-06-04T00:28:18;16.80;29.00
22532;DHT22;11432;46.924;7.114;2023-06-04T00:30:44;16.80;27.50
22532;DHT22;11432;46.924;7.114;2023-06-04T00:33:10;16.80;23.10
22532;DHT22;11432;46.924;7.114;2023-06-04T00:35:36;16.80;36.50
22532;DHT22;11432;46.924;7.114;2023-06-04T00:38:01;16.80;37.40
22532;DHT22;11432;46.924;7.114;2023-06-04T00:40:27;16.80;30.60
22532;DHT22;11432;46.924;7.114;2023-06-04T00:42:53;16.70;23.50
22532;DHT22;11432;46.924;7.114;2023-06-04T00:45:21;16.70;33.90
22532;DHT22;11432;46.924;7.114;2023-06-04T00:47:46;16.80;41.80
22532;DHT22;11432;46.924;7.114;2023-06-04T00:50:13;16.80;30.40
22532;DHT22;11432;46.924;7.114;2023-06-04T00:52:40;16.80;38.00
22532;DHT22;11432;46.924;7.114;2023-06-04T00:55:06;16.90;28.00
22532;DHT22;11432;46.924;7.114;2023-06-04T00:57:31;16.90;26.60
22532;DHT22;11432;46.924;7.114;2023-06-04T00:59:57;16.90;48.50
22532;DHT22;11432;46.924;7.114;2023-06-04T01:02:24;16.80;40.80
22532;DHT22;11432;46.924;7.114;2023-06-04T01:07:23;16.80;44.90
22532;DHT22;11432;46.924;7.114;2023-06-04T01:09:50;16.80;60.70
22532;DHT22;11432;46.924;7.114;2023-06-04T01:12:16;16.90;56.00
22532;DHT22;11432;46.924;7.114;2023-06-04T01:14:42;16.80;50.60
22532;DHT22;11432;46.924;7.114;2023-06-04T01:20:06;16.80;32.10
22532;DHT22;11432;46.924;7.114;2023-06-04T01:25:34;16.60;65.90
22532;DHT22;11432;46.924;7.114;2023-06-04T01:28:02;16.50;56.30
22532;DHT22;11432;46.924;7.114;2023-06-04T01:30:32;16.40;94.80
22532;DHT22;11432;46.924;7.114;2023-06-04T01:32:59;16.30;97.00
22532;DHT22;11432;46.924;7.114;2023-06-04T01:35:26;16.40;99.90
22532;DHT22;11432;46.924;7.114;2023-06-04T01:37:52;16.40;99.90
22532;DHT22;11432;46.924;7.114;2023-06-04T01:40:20;16.40;99.90
22532;DHT22;11432;46.924;7.114;2023-06-04T01:42:45;16.40;99.90
22532;DHT22;11432;46.924;7.114;2023-06-04T01:45:11;16.30;99.90
22532;DHT22;11432;46.924;7.114;2023-06-04T01:47:37;16.30;99.80
22532;DHT22;11432;46.924;7.114;2023-06-04T01:50:05;16.20;99.90
22532;DHT22;11432;46.924;7.114;2023-06-04T01:52:37;16.20;99.90
22532;DHT22;11432;46.924;7.114;2023-06-04T01:55:11;16.10;99.90
22532;DHT22;11432;46.924;7.114;2023-06-04T01:57:38;16.00;95.80
22532;DHT22;11432;46.924;7.114;2023-06-04T02:00:05;15.90;99.90
22532;DHT22;11432;46.924;7.114;2023-06-04T02:02:35;15.90;99.90
22532;DHT22;11432;46.924;7.114;2023-06-04T02:05:03;15.80;99.90
22532;DHT22;11432;46.924;7.114;2023-06-04T02:07:28;15.70;99.90
22532;DHT22;11432;46.924;7.114;2023-06-04T02:09:54;15.70;99.90
22532;DHT22;11432;46.924;7.114;2023-06-04T02:12:20;15.70;99.90
22532;DHT22;11432;46.924;7.114;2023-06-04T02:14:45;15.60;99.90
22532;DHT22;11432;46.924;7.114;2023-06-04T02:17:12;15.60;99.90
22532;DHT22;11432;46.924;7.114;2023-06-04T02:19:41;15.50;99.90
22532;DHT22;11432;46.924;7.114;2023-06-04T02:22:13;15.50;99.90
22532;DHT22;11432;46.924;7.114;2023-06-04T02:24:39;15.40;99.90
22532;DHT22;11432;46.924;7.114;2023-06-04T02:27:08;15.40;99.90
22532;DHT22;11432;46.924;7.114;2023-06-04T02:29:33;15.40;99.90
22532;DHT22;11432;46.924;7.114;2023-06-04T02:31:59;15.40;99.90
22532;DHT22;11432;46.924;7.114;2023-06-04T02:34:25;15.30;99.90
22532;DHT22;11432;46.924;7.114;2023-06-04T02:36:51;15.30;99.90
22532;DHT22;11432;46.924;7.114;2023-06-04T02:39:20;15.30;99.90
22532;DHT22;11432;46.924;7.114;2023-06-04T02:41:46;15.30;99.90
22532;DHT22;11432;46.924;7.114;2023-06-04T02:44:12;15.30;99.90
22532;DHT22;11432;46.924;7.114;2023-06-04T02:46:38;15.30;99.90
22532;DHT22;11432;46.924;7.114;2023-06-04T02:49:04;15.30;99.90
22532;DHT22;11432;46.924;7.114;2023-06-04T02:51:30;15.30;99.90
22532;DHT22;11432;46.924;7.114;2023-06-04T02:53:55;15.30;99.90
22532;DHT22;11432;46.924;7.114;2023-06-04T02:56:21;15.30;99.90
22532;DHT22;11432;46.924;7.114;2023-06-04T02:58:54;15.40;99.90
22532;DHT22;11432;46.924;7.114;2023-06-04T03:01:22;15.50;99.90
22532;DHT22;11432;46.924;7.114;2023-06-04T03:03:48;15.50;99.90
22532;DHT22;11432;46.924;7.114;2023-06-04T03:06:15;15.40;99.90
22532;DHT22;11432;46.924;7.114;2023-06-04T03:08:41;15.40;99.90
22532;DHT22;11432;46.924;7.114;2023-06-04T03:11:07;15.30;99.90
22532;DHT22;11432;46.924;7.114;2023-06-04T03:13:33;15.30;99.90
22532;DHT22;11432;46.924;7.114;2023-06-04T03:15:59;15.30;99.90
22532;DHT22;11432;46.924;7.114;2023-06-04T03:18:27;15.20;99.90
22532;DHT22;11432;46.924;7.114;2023-06-04T03:20:54;15.20;99.90
22532;DHT22;11432;46.924;7.114;2023-06-04T03:23:20;15.30;99.90
22532;DHT22;11432;46.924;7.114;2023-06-04T03:25:46;15.20;99.90
22532;DHT22;11432;46.924;7.114;2023-06-04T03:28:11;15.30;99.90
22532;DHT22;11432;46.924;7.114;2023-06-04T03:30:37;15.20;99.90
22532;DHT22;11432;46.924;7.114;2023-06-04T03:33:03;15.20;99.90
22532;DHT22;11432;46.924;7.114;2023-06-04T03:35:28;15.30;99.90
22532;DHT22;11432;46.924;7.114;2023-06-04T03:37:54;15.30;99.90
22532;DHT22;11432;46.924;7.114;2023-06-04T03:40:20;15.20;99.90
22532;DHT22;11432;46.924;7.114;2023-06-04T03:42:46;15.20;99.90
22532;DHT22;11432;46.924;7.114;2023-06-04T03:45:11;15.20;99.90
22532;DHT22;11432;46.924;7.114;2023-06-04T03:47:38;15.30;99.90
22532;DHT22;11432;46.924;7.114;2023-06-04T03:50:05;15.30;99.90
22532;DHT22;11432;46.924;7.114;2023-06-04T03:52:31;15.30;99.90
22532;DHT22;11432;46.924;7.114;2023-06-04T03:54:57;15.30;99.90
22532;DHT22;11432;46.924;7.114;2023-06-04T03:57:23;15.20;99.90
22532;DHT22;11432;46.924;7.114;2023-06-04T03:59:48;15.20;99.70
22532;DHT22;11432;46.924;7.114;2023-06-04T04:02:14;15.10;99.90
22532;DHT22;11432;46.924;7.114;2023-06-04T04:04:40;15.10;99.90
22532;DHT22;11432;46.924;7.114;2023-06-04T04:07:06;15.10;99.90
22532;DHT22;11432;46.924;7.114;2023-06-04T04:09:31;15.30;99.90
22532;DHT22;11432;46.924;7.114;2023-06-04T04:11:57;15.30;99.90
22532;DHT22;11432;46.924;7.114;2023-06-04T04:14:22;15.20;95.80
22532;DHT22;11432;46.924;7.114;2023-06-04T04:16:48;15.30;70.00
22532;DHT22;11432;46.924;7.114;2023-06-04T04:19:14;15.40;42.70
22532;DHT22;11432;46.924;7.114;2023-06-04T04:21:39;15.40;36.20
22532;DHT22;11432;46.924;7.114;2023-06-04T04:24:05;15.40;37.70
22532;DHT22;11432;46.924;7.114;2023-06-04T04:26:31;15.40;33.60
22532;DHT22;11432;46.924;7.114;2023-06-04T04:28:56;15.50;25.50
22532;DHT22;11432;46.924;7.114;2023-06-04T04:31:26;15.60;20.80
22532;DHT22;11432;46.924;7.114;2023-06-04T04:33:54;15.60;14.00
22532;DHT22;11432;46.924;7.114;2023-06-04T04:36:20;15.70;27.00
22532;DHT22;11432;46.924;7.114;2023-06-04T04:38:46;15.80;14.00
22532;DHT22;11432;46.924;7.114;2023-06-04T04:41:11;16.00;4.00
22532;DHT22;11432;46.924;7.114;2023-06-04T04:43:37;16.10;1.00
22532;DHT22;11432;46.924;7.114;2023-06-04T04:46:06;16.20;1.00
22532;DHT22;11432;46.924;7.114;2023-06-04T04:48:32;16.30;1.00
22532;DHT22;11432;46.924;7.114;2023-06-04T04:50:58;16.30;1.00
22532;DHT22;11432;46.924;7.114;2023-06-04T04:53:26;16.40;1.00
22532;DHT22;11432;46.924;7.114;2023-06-04T04:55:52;16.40;1.00
22532;DHT22;11432;46.924;7.114;2023-06-04T04:58:18;16.40;1.00
22532;DHT22;11432;46.924;7.114;2023-06-04T05:00:43;16.40;1.00
22532;DHT22;11432;46.924;7.114;2023-06-04T05:03:09;16.50;1.00
22532;DHT22;11432;46.924;7.114;2023-06-04T05:05:35;16.60;1.00
22532;DHT22;11432;46.924;7.114;2023-06-04T05:08:01;16.50;1.00
22532;DHT22;11432;46.924;7.114;2023-06-04T05:10:26;16.60;1.00
22532;DHT22;11432;46.924;7.114;2023-06-04T05:12:53;16.60;1.00
22532;DHT22;11432;46.924;7.114;2023-06-04T05:15:19;16.70;1.00
22532;DHT22;11432;46.924;7.114;2023-06-04T05:17:45;16.80;1.00
22532;DHT22;11432;46.924;7.114;2023-06-04T05:20:12;16.90;1.00
22532;DHT22;11432;46.924;7.114;2023-06-04T05:22:39;17.00;1.00
22532;DHT22;11432;46.924;7.114;2023-06-04T05:25:05;17.00;1.00
22532;DHT22;11432;46.924;7.114;2023-06-04T05:27:34;17.20;1.00
22532;DHT22;11432;46.924;7.114;2023-06-04T05:30:01;17.30;1.00
22532;DHT22;11432;46.924;7.114;2023-06-04T05:32:27;17.40;1.00
22532;DHT22;11432;46.924;7.114;2023-06-04T05:34:58;17.50;1.00
22532;DHT22;11432;46.924;7.114;2023-06-04T05:37:27;17.50;1.00
22532;DHT22;11432;46.924;7.114;2023-06-04T05:42:21;17.40;1.00
22532;DHT22;11432;46.924;7.114;2023-06-04T05:44:46;17.30;1.00
22532;DHT22;11432;46.924;7.114;2023-06-04T05:47:12;17.40;1.00
22532;DHT22;11432;46.924;7.114;2023-06-04T05:49:37;17.40;1.00
22532;DHT22;11432;46.924;7.114;2023-06-04T05:52:03;17.40;1.00
22532;DHT22;11432;46.924;7.114;2023-06-04T05:54:29;17.50;1.00
22532;DHT22;11432;46.924;7.114;2023-06-04T05:56:55;17.60;1.00
22532;DHT22;11432;46.924;7.114;2023-06-04T05:59:21;17.70;1.00
22532;DHT22;11432;46.924;7.114;2023-06-04T06:01:48;17.80;1.00
22532;DHT22;11432;46.924;7.114;2023-06-04T06:04:14;17.80;1.00
22532;DHT22;11432;46.924;7.114;2023-06-04T06:06:41;17.90;1.00
22532;DHT22;11432;46.924;7.114;2023-06-04T06:09:09;17.90;1.00
22532;DHT22;11432;46.924;7.114;2023-06-04T06:11:35;18.00;1.00
22532;DHT22;11432;46.924;7.114;2023-06-04T06:14:01;18.00;1.00
22532;DHT22;11432;46.924;7.114;2023-06-04T06:16:26;18.10;1.00
22532;DHT22;11432;46.924;7.114;2023-06-04T06:18:52;18.00;1.00
22532;DHT22;11432;46.924;7.114;2023-06-04T06:21:19;17.90;1.00
22532;DHT22;11432;46.924;7.114;2023-06-04T06:23:45;17.90;1.00
22532;DHT22;11432;46.924;7.114;2023-06-04T06:26:11;18.10;1.00
22532;DHT22;11432;46.924;7.114;2023-06-04T06:28:37;18.30;1.00
22532;DHT22;11432;46.924;7.114;2023-06-04T06:31:03;18.40;1.00
22532;DHT22;11432;46.924;7.114;2023-06-04T06:33:28;18.40;1.00
22532;DHT22;11432;46.924;7.114;2023-06-04T06:35:54;18.50;1.00
22532;DHT22;11432;46.924;7.114;2023-06-04T06:38:19;18.70;1.00
22532;DHT22;11432;46.924;7.114;2023-06-04T06:40:45;18.70;1.00
22532;DHT22;11432;46.924;7.114;2023-06-04T06:43:11;18.60;1.00
22532;DHT22;11432;46.924;7.114;2023-06-04T06:45:37;18.60;1.00
22532;DHT22;11432;46.924;7.114;2023-06-04T06:48:03;18.50;1.00
22532;DHT22;11432;46.924;7.114;2023-06-04T06:50:29;18.40;1.00
22532;DHT22;11432;46.924;7.114;2023-06-04T06:52:55;18.50;1.00
22532;DHT22;11432;46.924;7.114;2023-06-04T06:55:20;18.40;1.00
22532;DHT22;11432;46.924;7.114;2023-06-04T06:57:46;18.40;1.00
22532;DHT22;11432;46.924;7.114;2023-06-04T07:00:12;18.40;1.00
22532;DHT22;11432;46.924;7.114;2023-06-04T07:02:39;18.40;1.00
22532;DHT22;11432;46.924;7.114;2023-06-04T07:05:05;18.50;1.00
22532;DHT22;11432;46.924;7.114;2023-06-04T07:07:30;18.60;1.00
22532;DHT22;11432;46.924;7.114;2023-06-04T07:09:56;18.50;1.00
22532;DHT22;11432;46.924;7.114;2023-06-04T07:12:22;18.50;1.00
22532;DHT22;11432;46.924;7.114;2023-06-04T07:14:47;18.50;1.00
22532;DHT22;11432;46.924;7.114;2023-06-04T07:17:13;18.30;1.00
22532;DHT22;11432;46.924;7.114;2023-06-04T07:19:38;18.30;1.00
22532;DHT22;11432;46.924;7.114;2023-06-04T07:22:04;18.40;1.00
22532;DHT22;11432;46.924;7.114;2023-06-04T07:24:30;18.70;1.00
22532;DHT22;11432;46.924;7.114;2023-06-04T07:26:56;18.90;1.00
22532;DHT22;11432;46.924;7.114;2023-06-04T07:29:21;19.00;1.00
22532;DHT22;11432;46.924;7.114;2023-06-04T07:31:47;19.10;1.00
22532;DHT22;11432;46.924;7.114;2023-06-04T07:34:13;19.00;1.00
22532;DHT22;11432;46.924;7.114;2023-06-04T07:36:38;19.00;1.00
22532;DHT22;11432;46.924;7.114;2023-06-04T07:39:04;19.10;1.00
22532;DHT22;11432;46.924;7.114;2023-06-04T07:41:30;19.20;1.00
22532;DHT22;11432;46.924;7.114;2023-06-04T07:43:56;19.30;1.00
22532;DHT22;11432;46.924;7.114;2023-06-04T07:46:21;19.10;1.00
22532;DHT22;11432;46.924;7.114;2023-06-04T07:48:47;19.30;1.00
22532;DHT22;11432;46.924;7.114;2023-06-04T07:51:13;19.30;1.00
22532;DHT22;11432;46.924;7.114;2023-06-04T07:53:39;19.60;1.00
22532;DHT22;11432;46.924;7.114;2023-06-04T07:56:05;19.70;17.20
22532;DHT22;11432;46.924;7.114;2023-06-04T07:58:31;19.70;5.50
22532;DHT22;11432;46.924;7.114;2023-06-04T08:00:56;19.80;1.00
22532;DHT22;11432;46.924;7.114;2023-06-04T08:03:22;19.80;1.00
22532;DHT22;11432;46.924;7.114;2023-06-04T08:05:48;19.90;1.00
22532;DHT22;11432;46.924;7.114;2023-06-04T08:08:14;20.00;9.90
22532;DHT22;11432;46.924;7.114;2023-06-04T08:10:40;19.90;10.80
22532;DHT22;11432;46.924;7.114;2023-06-04T08:13:06;19.70;19.20
22532;DHT22;11432;46.924;7.114;2023-06-04T08:15:31;19.60;10.00
22532;DHT22;11432;46.924;7.114;2023-06-04T08:17:57;19.50;55.50
22532;DHT22;11432;46.924;7.114;2023-06-04T08:20:23;19.50;36.00
22532;DHT22;11432;46.924;7.114;2023-06-04T08:22:49;19.40;1.00
22532;DHT22;11432;46.924;7.114;2023-06-04T08:25:14;19.30;1.00
22532;DHT22;11432;46.924;7.114;2023-06-04T08:27:41;19.20;1.00
22532;DHT22;11432;46.924;7.114;2023-06-04T08:30:07;19.20;1.00
22532;DHT22;11432;46.924;7.114;2023-06-04T08:32:33;19.20;1.00
22532;DHT22;11432;46.924;7.114;2023-06-04T08:34:59;19.30;1.00
22532;DHT22;11432;46.924;7.114;2023-06-04T08:37:25;19.40;1.00
22532;DHT22;11432;46.924;7.114;2023-06-04T08:39:51;19.60;1.00
22532;DHT22;11432;46.924;7.114;2023-06-04T08:42:41;19.40;1.00
22532;DHT22;11432;46.924;7.114;2023-06-04T08:45:10;19.50;1.00
22532;DHT22;11432;46.924;7.114;2023-06-04T08:47:37;19.80;1.00
22532;DHT22;11432;46.924;7.114;2023-06-04T08:50:06;20.00;1.00
22532;DHT22;11432;46.924;7.114;2023-06-04T08:52:34;20.20;1.00
22532;DHT22;11432;46.924;7.114;2023-06-04T08:55:00;20.50;1.00
22532;DHT22;11432;46.924;7.114;2023-06-04T08:57:26;20.50;1.00
22532;DHT22;11432;46.924;7.114;2023-06-04T08:59:52;20.30;1.00
22532;DHT22;11432;46.924;7.114;2023-06-04T09:02:18;20.50;1.00
22532;DHT22;11432;46.924;7.114;2023-06-04T09:04:44;20.60;1.00
22532;DHT22;11432;46.924;7.114;2023-06-04T09:07:12;20.60;5.80
22532;DHT22;11432;46.924;7.114;2023-06-04T09:09:39;20.80;20.70
22532;DHT22;11432;46.924;7.114;2023-06-04T09:12:08;21.00;27.80
22532;DHT22;11432;46.924;7.114;2023-06-04T09:14:35;21.30;25.70
22532;DHT22;11432;46.924;7.114;2023-06-04T09:17:00;21.70;38.50
22532;DHT22;11432;46.924;7.114;2023-06-04T09:19:26;21.80;54.50
22532;DHT22;11432;46.924;7.114;2023-06-04T09:21:53;21.60;61.60
22532;DHT22;11432;46.924;7.114;2023-06-04T09:24:21;21.60;56.60
22532;DHT22;11432;46.924;7.114;2023-06-04T09:26:46;21.70;57.90
22532;DHT22;11432;46.924;7.114;2023-06-04T09:29:12;21.90;41.90
22532;DHT22;11432;46.924;7.114;2023-06-04T09:31:38;21.90;44.60
22532;DHT22;11432;46.924;7.114;2023-06-04T09:34:06;21.60;53.40
22532;DHT22;11432;46.924;7.114;2023-06-04T09:36:35;21.70;50.50
22532;DHT22;11432;46.924;7.114;2023-06-04T09:39:17;21.90;43.30
22532;DHT22;11432;46.924;7.114;2023-06-04T09:41:43;22.00;46.50
22532;DHT22;11432;46.924;7.114;2023-06-04T09:44:09;22.40;45.70
22532;DHT22;11432;46.924;7.114;2023-06-04T09:46:36;22.70;44.90
22532;DHT22;11432;46.924;7.114;2023-06-04T09:49:03;22.90;46.30
22532;DHT22;11432;46.924;7.114;2023-06-04T09:51:29;23.20;44.90
22532;DHT22;11432;46.924;7.114;2023-06-04T09:54:03;23.30;44.70
22532;DHT22;11432;46.924;7.114;2023-06-04T09:56:29;23.00;48.20
22532;DHT22;11432;46.924;7.114;2023-06-04T09:58:57;23.30;49.70
22532;DHT22;11432;46.924;7.114;2023-06-04T10:01:26;23.20;54.60
22532;DHT22;11432;46.924;7.114;2023-06-04T10:03:53;23.00;31.10
22532;DHT22;11432;46.924;7.114;2023-06-04T10:06:19;22.90;51.30
22532;DHT22;11432;46.924;7.114;2023-06-04T10:08:49;23.00;49.70
22532;DHT22;11432;46.924;7.114;2023-06-04T10:11:17;22.70;55.00
22532;DHT22;11432;46.924;7.114;2023-06-04T10:14:16;23.00;59.20
22532;DHT22;11432;46.924;7.114;2023-06-04T10:16:43;23.20;54.30
22532;DHT22;11432;46.924;7.114;2023-06-04T10:19:09;23.30;52.00
22532;DHT22;11432;46.924;7.114;2023-06-04T10:21:35;23.40;47.20
22532;DHT22;11432;46.924;7.114;2023-06-04T10:24:03;23.60;39.90
22532;DHT22;11432;46.924;7.114;2023-06-04T10:26:29;23.20;40.90
22532;DHT22;11432;46.924;7.114;2023-06-04T10:28:56;23.10;40.20
22532;DHT22;11432;46.924;7.114;2023-06-04T10:31:22;23.20;53.00
22532;DHT22;11432;46.924;7.114;2023-06-04T10:33:48;23.20;51.80
22532;DHT22;11432;46.924;7.114;2023-06-04T10:36:20;23.40;51.00
22532;DHT22;11432;46.924;7.114;2023-06-04T10:38:47;23.50;27.80
22532;DHT22;11432;46.924;7.114;2023-06-04T10:41:14;23.90;27.70
22532;DHT22;11432;46.924;7.114;2023-06-04T10:43:41;23.80;22.50
22532;DHT22;11432;46.924;7.114;2023-06-04T10:46:13;23.80;32.00
22532;DHT22;11432;46.924;7.114;2023-06-04T10:48:49;23.90;23.90
22532;DHT22;11432;46.924;7.114;2023-06-04T10:51:37;24.10;24.80
22532;DHT22;11432;46.924;7.114;2023-06-04T10:54:03;24.20;21.60
22532;DHT22;11432;46.924;7.114;2023-06-04T10:56:30;24.20;24.80
22532;DHT22;11432;46.924;7.114;2023-06-04T10:58:57;24.50;28.30
22532;DHT22;11432;46.924;7.114;2023-06-04T11:01:29;24.70;23.60
22532;DHT22;11432;46.924;7.114;2023-06-04T11:03:57;24.90;32.50
22532;DHT22;11432;46.924;7.114;2023-06-04T11:06:23;25.20;43.10
22532;DHT22;11432;46.924;7.114;2023-06-04T11:09:00;25.30;37.30
22532;DHT22;11432;46.924;7.114;2023-06-04T11:11:26;25.50;33.40
22532;DHT22;11432;46.924;7.114;2023-06-04T11:13:52;25.40;38.70
22532;DHT22;11432;46.924;7.114;2023-06-04T11:16:18;25.30;31.70
22532;DHT22;11432;46.924;7.114;2023-06-04T11:18:54;25.40;28.20
22532;DHT22;11432;46.924;7.114;2023-06-04T11:21:21;25.10;30.70
22532;DHT22;11432;46.924;7.114;2023-06-04T11:23:46;25.30;27.10
22532;DHT22;11432;46.924;7.114;2023-06-04T11:26:12;25.40;26.00
22532;DHT22;11432;46.924;7.114;2023-06-04T11:28:39;25.40;31.90
22532;DHT22;11432;46.924;7.114;2023-06-04T11:31:05;25.70;30.80
22532;DHT22;11432;46.924;7.114;2023-06-04T11:33:45;25.90;34.60
22532;DHT22;11432;46.924;7.114;2023-06-04T11:36:21;26.20;25.80
22532;DHT22;11432;46.924;7.114;2023-06-04T11:39:13;26.20;26.50
22532;DHT22;11432;46.924;7.114;2023-06-04T11:41:41;26.60;25.00
22532;DHT22;11432;46.924;7.114;2023-06-04T11:44:07;26.80;30.00
22532;DHT22;11432;46.924;7.114;2023-06-04T11:46:34;27.00;22.60
22532;DHT22;11432;46.924;7.114;2023-06-04T11:49:00;27.10;12.40
22532;DHT22;11432;46.924;7.114;2023-06-04T11:51:27;27.00;1.00
22532;DHT22;11432;46.924;7.114;2023-06-04T11:53:53;27.00;1.00
22532;DHT22;11432;46.924;7.114;2023-06-04T11:56:19;26.90;3.50
22532;DHT22;11432;46.924;7.114;2023-06-04T11:58:45;26.50;9.90
22532;DHT22;11432;46.924;7.114;2023-06-04T12:01:12;26.50;10.20
22532;DHT22;11432;46.924;7.114;2023-06-04T12:03:42;26.30;1.00
22532;DHT22;11432;46.924;7.114;2023-06-04T12:06:12;26.30;11.90
22532;DHT22;11432;46.924;7.114;2023-06-04T12:08:48;26.10;20.00
22532;DHT22;11432;46.924;7.114;2023-06-04T12:11:31;26.20;17.40
22532;DHT22;11432;46.924;7.114;2023-06-04T12:13:59;26.40;11.30
22532;DHT22;11432;46.924;7.114;2023-06-04T12:16:25;26.40;1.40
22532;DHT22;11432;46.924;7.114;2023-06-04T12:18:51;26.00;1.00
22532;DHT22;11432;46.924;7.114;2023-06-04T12:21:24;26.00;1.00
22532;DHT22;11432;46.924;7.114;2023-06-04T12:24:13;25.50;1.00
22532;DHT22;11432;46.924;7.114;2023-06-04T12:26:40;25.30;1.00
22532;DHT22;11432;46.924;7.114;2023-06-04T12:29:15;25.30;6.70
22532;DHT22;11432;46.924;7.114;2023-06-04T12:31:45;25.20;1.00
22532;DHT22;11432;46.924;7.114;2023-06-04T12:34:15;25.00;1.00
22532;DHT22;11432;46.924;7.114;2023-06-04T12:36:41;25.00;1.00
22532;DHT22;11432;46.924;7.114;2023-06-04T12:39:08;24.90;1.00
22532;DHT22;11432;46.924;7.114;2023-06-04T12:41:34;24.80;1.00
22532;DHT22;11432;46.924;7.114;2023-06-04T12:44:00;24.60;1.00
22532;DHT22;11432;46.924;7.114;2023-06-04T12:46:26;24.70;1.00
22532;DHT22;11432;46.924;7.114;2023-06-04T12:48:54;24.60;1.00
22532;DHT22;11432;46.924;7.114;2023-06-04T12:51:20;24.70;1.00
22532;DHT22;11432;46.924;7.114;2023-06-04T12:53:47;24.60;1.00
22532;DHT22;11432;46.924;7.114;2023-06-04T12:56:13;24.50;1.00
22532;DHT22;11432;46.924;7.114;2023-06-04T12:58:39;24.50;1.00
22532;DHT22;11432;46.924;7.114;2023-06-04T13:01:05;24.60;1.00
22532;DHT22;11432;46.924;7.114;2023-06-04T13:03:31;24.60;1.00
22532;DHT22;11432;46.924;7.114;2023-06-04T13:05:57;24.60;1.00
22532;DHT22;11432;46.924;7.114;2023-06-04T13:08:23;24.60;1.00
22532;DHT22;11432;46.924;7.114;2023-06-04T13:10:51;24.70;1.00
22532;DHT22;11432;46.924;7.114;2023-06-04T13:13:17;24.90;1.00
22532;DHT22;11432;46.924;7.114;2023-06-04T13:15:47;25.10;1.00
22532;DHT22;11432;46.924;7.114;2023-06-04T13:18:12;25.10;1.00
22532;DHT22;11432;46.924;7.114;2023-06-04T13:20:40;25.10;1.00
22532;DHT22;11432;46.924;7.114;2023-06-04T13:23:07;25.10;1.00
22532;DHT22;11432;46.924;7.114;2023-06-04T13:25:32;25.00;1.00
22532;DHT22;11432;46.924;7.114;2023-06-04T13:28:02;25.10;1.00
22532;DHT22;11432;46.924;7.114;2023-06-04T13:30:28;24.80;1.00
22532;DHT22;11432;46.924;7.114;2023-06-04T13:32:54;24.90;1.00
22532;DHT22;11432;46.924;7.114;2023-06-04T13:35:20;24.80;1.00
22532;DHT22;11432;46.924;7.114;2023-06-04T13:37:46;24.80;1.00
22532;DHT22;11432;46.924;7.114;2023-06-04T13:40:12;24.80;1.00
22532;DHT22;11432;46.924;7.114;2023-06-04T13:42:38;24.90;1.00
22532;DHT22;11432;46.924;7.114;2023-06-04T13:45:03;24.90;1.00
22532;DHT22;11432;46.924;7.114;2023-06-04T13:47:29;24.90;1.00
22532;DHT22;11432;46.924;7.114;2023-06-04T13:49:55;24.90;1.00
22532;DHT22;11432;46.924;7.114;2023-06-04T13:52:21;24.70;1.00
22532;DHT22;11432;46.924;7.114;2023-06-04T13:54:46;24.70;1.00
22532;DHT22;11432;46.924;7.114;2023-06-04T13:57:12;24.80;1.00
22532;DHT22;11432;46.924;7.114;2023-06-04T13:59:38;24.90;1.00
22532;DHT22;11432;46.924;7.114;2023-06-04T14:02:04;24.90;1.00
22532;DHT22;11432;46.924;7.114;2023-06-04T14:04:30;24.90;1.00
22532;DHT22;11432;46.924;7.114;2023-06-04T14:06:56;24.90;1.60
22532;DHT22;11432;46.924;7.114;2023-06-04T14:09:21;24.90;1.90
22532;DHT22;11432;46.924;7.114;2023-06-04T14:11:47;24.90;1.00
22532;DHT22;11432;46.924;7.114;2023-06-04T14:14:16;25.00;1.00
22532;DHT22;11432;46.924;7.114;2023-06-04T14:16:45;25.00;1.00
22532;DHT22;11432;46.924;7.114;2023-06-04T14:19:12;25.20;1.10
22532;DHT22;11432;46.924;7.114;2023-06-04T14:21:37;25.40;1.20
22532;DHT22;11432;46.924;7.114;2023-06-04T14:24:03;25.50;1.00
22532;DHT22;11432;46.924;7.114;2023-06-04T14:26:29;25.50;1.00
22532;DHT22;11432;46.924;7.114;2023-06-04T14:28:55;25.50;1.00
22532;DHT22;11432;46.924;7.114;2023-06-04T14:31:21;25.50;1.00
22532;DHT22;11432;46.924;7.114;2023-06-04T14:33:46;25.70;1.00
22532;DHT22;11432;46.924;7.114;2023-06-04T14:36:12;25.70;1.00
22532;DHT22;11432;46.924;7.114;2023-06-04T14:38:38;25.40;1.00
22532;DHT22;11432;46.924;7.114;2023-06-04T14:41:04;25.50;1.00
22532;DHT22;11432;46.924;7.114;2023-06-04T14:43:29;25.70;1.00
22532;DHT22;11432;46.924;7.114;2023-06-04T14:45:55;25.90;1.00
22532;DHT22;11432;46.924;7.114;2023-06-04T14:48:20;25.90;1.00
22532;DHT22;11432;46.924;7.114;2023-06-04T14:50:46;25.90;1.00
22532;DHT22;11432;46.924;7.114;2023-06-04T14:53:19;26.00;1.00
22532;DHT22;11432;46.924;7.114;2023-06-04T14:55:45;26.00;1.00
22532;DHT22;11432;46.924;7.114;2023-06-04T14:58:12;26.10;1.00
22532;DHT22;11432;46.924;7.114;2023-06-04T15:00:37;26.10;1.00
22532;DHT22;11432;46.924;7.114;2023-06-04T15:03:03;26.00;1.00
22532;DHT22;11432;46.924;7.114;2023-06-04T15:05:29;26.00;1.00
22532;DHT22;11432;46.924;7.114;2023-06-04T15:07:54;26.00;1.00
22532;DHT22;11432;46.924;7.114;2023-06-04T15:10:20;26.30;1.00
22532;DHT22;11432;46.924;7.114;2023-06-04T15:12:46;26.70;1.00
22532;DHT22;11432;46.924;7.114;2023-06-04T15:15:11;27.50;1.00
22532;DHT22;11432;46.924;7.114;2023-06-04T15:17:37;28.00;1.00
22532;DHT22;11432;46.924;7.114;2023-06-04T15:20:03;28.70;1.00
22532;DHT22;11432;46.924;7.114;2023-06-04T15:22:29;29.40;1.00
22532;DHT22;11432;46.924;7.114;2023-06-04T15:24:55;30.10;1.00
22532;DHT22;11432;46.924;7.114;2023-06-04T15:27:20;30.30;1.00
22532;DHT22;11432;46.924;7.114;2023-06-04T15:29:46;30.40;1.00
22532;DHT22;11432;46.924;7.114;2023-06-04T15:32:12;30.70;1.00
22532;DHT22;11432;46.924;7.114;2023-06-04T15:34:38;31.10;1.00
22532;DHT22;11432;46.924;7.114;2023-06-04T15:37:04;30.90;1.00
22532;DHT22;11432;46.924;7.114;2023-06-04T15:39:29;30.80;1.00
22532;DHT22;11432;46.924;7.114;2023-06-04T15:41:55;30.70;1.00
22532;DHT22;11432;46.924;7.114;2023-06-04T15:44:21;31.10;1.00
22532;DHT22;11432;46.924;7.114;2023-06-04T15:46:49;31.40;1.00
22532;DHT22;11432;46.924;7.114;2023-06-04T15:49:14;31.80;1.00